createdAt,value
2018-04-16T00:01:50.700Z,7.80
2018-04-16T00:04:18.188Z,6.62
2018-04-16T00:06:45.681Z,7.53
2018-04-16T00:09:13.930Z,6.80
2018-04-16T00:11:41.430Z,7.60
2018-04-16T00:14:09.683Z,6.18
2018-04-16T00:16:37.178Z,4.62
2018-04-16T00:19:04.658Z,5.68
2018-04-16T00:21:32.163Z,9.68
2018-04-16T00:23:59.645Z,9.95
2018-04-16T00:26:27.906Z,6.47
2018-04-16T00:28:55.396Z,10.80
2018-04-16T00:31:22.899Z,8.20
2018-04-16T00:33:55.936Z,10.52
2018-04-16T00:36:29.166Z,10.00
2018-04-16T00:39:02.318Z,8.80
2018-04-16T00:41:35.502Z,8.40
2018-04-16T00:44:23.549Z,9.65
2018-04-16T00:46:57.369Z,12.00
2018-04-16T00:49:30.527Z,9.30
2018-04-16T00:52:04.517Z,10.32
2018-04-16T00:54:37.726Z,8.55
2018-04-16T00:57:10.903Z,10.43
2018-04-16T00:59:44.098Z,7.80
2018-04-16T01:02:17.277Z,8.95
2018-04-16T01:04:50.329Z,8.23
2018-04-16T01:07:23.370Z,9.40
2018-04-16T01:09:56.524Z,7.90
2018-04-16T01:12:29.585Z,8.73
2018-04-16T01:15:03.511Z,11.68
2018-04-16T01:17:36.726Z,6.97
2018-04-16T01:20:09.748Z,6.35
2018-04-16T01:22:43.755Z,8.55
2018-04-16T01:25:16.909Z,8.35
2018-04-16T01:27:50.093Z,13.52
2018-04-16T01:30:23.259Z,9.73
2018-04-16T01:32:57.191Z,5.82
2018-04-16T01:35:30.361Z,7.03
2018-04-16T01:38:04.308Z,8.48
2018-04-16T01:40:52.641Z,6.82
2018-04-16T01:43:25.694Z,11.60
2018-04-16T01:46:13.855Z,11.40
2018-04-16T01:48:46.906Z,5.93
2018-04-16T01:51:19.979Z,9.32
2018-04-16T01:53:53.438Z,6.57
2018-04-16T01:56:26.513Z,7.87
2018-04-16T01:58:59.621Z,9.68
2018-04-16T02:01:33.420Z,8.18
2018-04-16T02:04:06.513Z,14.30
2018-04-16T02:06:40.463Z,8.60
2018-04-16T02:09:13.677Z,11.00
2018-04-16T02:11:46.710Z,15.32
2018-04-16T02:14:20.522Z,12.55
2018-04-16T02:16:54.434Z,5.07
2018-04-16T02:19:27.645Z,10.43
2018-04-16T02:22:00.821Z,13.62
2018-04-16T02:24:34.043Z,13.23
2018-04-16T02:27:07.280Z,8.45
2018-04-16T02:29:41.101Z,5.82
2018-04-16T02:32:15.021Z,14.07
2018-04-16T02:34:49.013Z,9.10
2018-04-16T02:37:22.033Z,9.40
2018-04-16T02:39:55.197Z,8.10
2018-04-16T02:42:28.345Z,9.68
2018-04-16T02:45:01.513Z,13.40
2018-04-16T02:47:34.673Z,8.15
2018-04-16T02:50:08.635Z,7.00
2018-04-16T02:52:41.796Z,10.18
2018-04-16T02:55:15.742Z,5.03
2018-04-16T02:57:48.887Z,8.30
2018-04-16T03:00:29.883Z,10.55
2018-04-16T03:03:03.086Z,15.50
2018-04-16T03:05:36.140Z,14.80
2018-04-16T03:08:10.065Z,7.90
2018-04-16T03:10:43.879Z,16.05
2018-04-16T03:13:17.021Z,12.57
2018-04-16T03:15:50.190Z,9.88
2018-04-16T03:18:32.558Z,11.68
2018-04-16T03:21:06.405Z,10.93
2018-04-16T03:23:39.549Z,11.55
2018-04-16T03:26:13.362Z,16.92
2018-04-16T03:28:47.294Z,12.65
2018-04-16T03:31:20.490Z,9.77
2018-04-16T03:33:53.653Z,12.48
2018-04-16T03:36:27.641Z,20.05
2018-04-16T03:39:00.798Z,12.35
2018-04-16T03:41:33.974Z,7.75
2018-04-16T03:44:07.903Z,13.85
2018-04-16T03:46:41.072Z,9.05
2018-04-16T03:49:14.238Z,14.02
2018-04-16T03:51:45.185Z,8.60
2018-04-16T03:54:13.443Z,13.52
2018-04-16T03:56:40.949Z,8.52
2018-04-16T03:59:08.428Z,13.23
2018-04-16T04:01:35.953Z,13.82
2018-04-16T04:04:04.998Z,22.60
2018-04-16T04:06:32.473Z,15.85
2018-04-16T04:08:59.988Z,29.67
2018-04-16T04:11:27.483Z,21.50
2018-04-16T04:13:55.046Z,25.40
2018-04-16T04:16:22.564Z,26.02
2018-04-16T04:18:50.175Z,26.15
2018-04-16T04:21:18.503Z,27.83
2018-04-16T04:23:58.614Z,36.08
2018-04-16T04:26:37.725Z,25.12
2018-04-16T04:29:17.210Z,35.60
2018-04-16T04:31:44.839Z,26.80
2018-04-16T04:34:13.335Z,25.45
2018-04-16T04:36:41.657Z,25.92
2018-04-16T04:39:09.257Z,26.00
2018-04-16T04:41:36.802Z,20.48
2018-04-16T04:44:04.431Z,24.30
2018-04-16T04:46:32.028Z,31.10
2018-04-16T04:48:59.602Z,20.50
2018-04-16T04:51:27.251Z,24.33
2018-04-16T04:53:54.869Z,29.35
2018-04-16T04:56:23.306Z,28.62
2018-04-16T04:58:50.971Z,19.48
2018-04-16T05:01:18.631Z,27.92
2018-04-16T05:03:46.242Z,26.42
2018-04-16T05:06:14.081Z,17.85
2018-04-16T05:08:42.523Z,16.37
2018-04-16T05:11:10.178Z,22.00
2018-04-16T05:13:37.854Z,18.52
2018-04-16T05:16:05.430Z,22.08
2018-04-16T05:18:33.054Z,19.30
2018-04-16T05:21:00.620Z,25.25
2018-04-16T05:23:28.251Z,25.55
2018-04-16T05:25:56.533Z,27.42
2018-04-16T05:28:24.862Z,22.52
2018-04-16T05:30:52.381Z,30.62
2018-04-16T05:33:19.930Z,27.37
2018-04-16T05:35:48.235Z,19.85
2018-04-16T05:38:15.778Z,22.65
2018-04-16T05:40:44.153Z,19.77
2018-04-16T05:43:12.567Z,18.10
2018-04-16T05:45:40.194Z,19.30
2018-04-16T05:48:07.825Z,19.05
2018-04-16T05:50:35.412Z,24.98
2018-04-16T05:53:02.935Z,18.60
2018-04-16T05:55:30.442Z,21.70
2018-04-16T05:57:58.689Z,19.95
2018-04-16T06:00:26.206Z,15.63
2018-04-16T06:02:53.685Z,19.75
2018-04-16T06:05:21.194Z,18.92
2018-04-16T06:07:49.471Z,24.12
2018-04-16T06:10:17.746Z,14.70
2018-04-16T06:12:45.996Z,14.85
2018-04-16T06:15:13.493Z,18.27
2018-04-16T06:17:41.747Z,26.20
2018-04-16T06:20:10.021Z,14.85
2018-04-16T06:22:37.505Z,14.07
2018-04-16T06:25:05.046Z,23.27
2018-04-16T06:27:32.526Z,24.30
2018-04-16T06:30:00.030Z,19.12
2018-04-16T06:32:27.510Z,16.87
2018-04-16T06:34:55.000Z,16.12
2018-04-16T06:37:23.253Z,19.23
2018-04-16T06:39:50.758Z,16.52
2018-04-16T06:42:18.241Z,20.77
2018-04-16T06:44:45.737Z,18.90
2018-04-16T06:47:13.217Z,23.50
2018-04-16T06:49:41.486Z,20.35
2018-04-16T06:52:09.730Z,19.17
2018-04-16T06:54:37.205Z,20.02
2018-04-16T06:57:04.711Z,20.60
2018-04-16T06:59:32.224Z,17.87
2018-04-16T07:02:00.523Z,20.60
2018-04-16T07:04:28.024Z,18.35
2018-04-16T07:06:55.531Z,26.23
2018-04-16T07:09:23.799Z,18.90
2018-04-16T07:11:51.302Z,16.98
2018-04-16T07:14:18.805Z,17.40
2018-04-16T07:16:46.322Z,15.85
2018-04-16T07:19:13.815Z,16.05
2018-04-16T07:21:41.318Z,21.40
2018-04-16T07:24:09.591Z,16.87
2018-04-16T07:26:37.864Z,24.60
2018-04-16T07:29:06.121Z,18.20
2018-04-16T07:31:33.625Z,15.60
2018-04-16T07:34:01.118Z,13.27
2018-04-16T07:36:28.617Z,16.00
2018-04-16T07:38:56.869Z,18.58
2018-04-16T07:41:24.374Z,18.12
2018-04-16T07:43:51.869Z,11.10
2018-04-16T07:46:19.373Z,14.48
2018-04-16T07:48:47.625Z,12.27
2018-04-16T07:51:15.192Z,12.85
2018-04-16T07:53:42.685Z,14.85
2018-04-16T07:56:10.238Z,9.52
2018-04-16T07:58:37.751Z,8.70
2018-04-16T08:01:05.322Z,8.82
2018-04-16T08:03:32.928Z,11.25
2018-04-16T08:06:01.305Z,9.32
2018-04-16T08:08:29.641Z,9.15
2018-04-16T08:10:57.159Z,6.20
2018-04-16T08:13:24.758Z,9.20
2018-04-16T08:15:52.313Z,7.70
2018-04-16T08:18:20.665Z,5.72
2018-04-16T08:20:48.247Z,8.13
2018-04-16T08:23:15.817Z,5.12
2018-04-16T08:25:43.381Z,7.07
2018-04-16T08:28:10.967Z,7.90
2018-04-16T08:30:39.259Z,4.18
2018-04-16T08:33:06.823Z,4.40
2018-04-16T08:35:34.388Z,3.80
2018-04-16T08:38:01.946Z,7.65
2018-04-16T08:40:29.515Z,9.95
2018-04-16T08:42:57.109Z,4.95
2018-04-16T08:45:24.658Z,3.30
2018-04-16T08:47:52.221Z,4.25
2018-04-16T08:50:19.758Z,5.70
2018-04-16T08:52:47.273Z,4.78
2018-04-16T08:55:14.800Z,8.32
2018-04-16T08:57:42.313Z,3.70
2018-04-16T09:00:10.634Z,10.07
2018-04-16T09:02:38.198Z,8.52
2018-04-16T09:05:05.788Z,5.30
2018-04-16T09:07:33.365Z,5.18
2018-04-16T09:10:00.921Z,4.60
2018-04-16T09:12:28.489Z,3.22
2018-04-16T09:14:56.110Z,5.60
2018-04-16T09:17:23.775Z,3.80
2018-04-16T09:19:51.362Z,6.07
2018-04-16T09:22:18.916Z,6.20
2018-04-16T09:24:46.457Z,4.32
2018-04-16T09:27:13.969Z,10.77
2018-04-16T09:29:41.482Z,5.05
2018-04-16T09:32:09.007Z,3.17
2018-04-16T09:34:36.521Z,4.25
2018-04-16T09:37:04.012Z,2.85
2018-04-16T09:39:32.300Z,6.32
2018-04-16T09:41:59.818Z,4.75
2018-04-16T09:44:27.325Z,4.25
2018-04-16T09:46:54.813Z,2.42
2018-04-16T09:49:22.315Z,4.78
2018-04-16T09:51:49.804Z,2.65
2018-04-16T09:54:17.365Z,6.50
2018-04-16T09:56:45.621Z,4.78
2018-04-16T09:59:13.911Z,9.20
2018-04-16T10:01:41.403Z,4.65
2018-04-16T10:04:08.914Z,9.23
2018-04-16T10:06:36.396Z,2.25
2018-04-16T10:09:03.906Z,5.55
2018-04-16T10:11:31.385Z,8.32
2018-04-16T10:13:58.895Z,4.50
2018-04-16T10:16:26.387Z,5.15
2018-04-16T10:18:53.873Z,3.55
2018-04-16T10:21:22.153Z,4.28
2018-04-16T10:23:50.417Z,9.43
2018-04-16T10:26:17.927Z,5.95
2018-04-16T10:28:45.441Z,4.93
2018-04-16T10:31:12.979Z,5.18
2018-04-16T10:36:19.012Z,3.95
2018-04-16T10:38:46.549Z,4.10
2018-04-16T10:41:15.461Z,3.83
2018-04-16T10:43:43.179Z,5.87
2018-04-16T10:46:10.766Z,3.70
2018-04-16T10:48:38.275Z,3.08
2018-04-16T10:51:05.865Z,6.28
2018-04-16T10:53:33.686Z,4.97
2018-04-16T10:56:01.658Z,2.35
2018-04-16T10:58:29.170Z,2.22
2018-04-16T11:00:56.740Z,3.58
2018-04-16T11:03:24.211Z,9.82
2018-04-16T11:05:52.478Z,2.47
2018-04-16T11:08:20.726Z,4.15
2018-04-16T11:10:48.222Z,3.35
2018-04-16T11:13:17.298Z,3.30
2018-04-16T11:15:44.801Z,1.77
2018-04-16T11:18:12.498Z,2.55
2018-04-16T11:20:40.726Z,6.35
2018-04-16T11:23:08.993Z,4.00
2018-04-16T11:25:37.867Z,4.25
2018-04-16T11:28:05.374Z,4.32
2018-04-16T11:30:32.896Z,4.57
2018-04-16T11:33:01.174Z,3.08
2018-04-16T11:35:29.427Z,5.87
2018-04-16T11:37:56.989Z,3.20
2018-04-16T11:40:24.449Z,8.73
2018-04-16T11:42:51.949Z,3.78
2018-04-16T11:45:19.467Z,2.70
2018-04-16T11:47:46.998Z,3.05
2018-04-16T11:50:14.474Z,2.90
2018-04-16T11:52:41.997Z,6.37
2018-04-16T11:55:09.958Z,3.08
2018-04-16T11:57:37.459Z,6.60
2018-04-16T12:00:04.944Z,6.40
2018-04-16T12:02:32.458Z,1.92
2018-04-16T12:05:00.046Z,4.72
2018-04-16T12:07:27.547Z,4.82
2018-04-16T12:09:55.785Z,5.18
2018-04-16T12:12:23.277Z,4.47
2018-04-16T12:14:51.525Z,4.40
2018-04-16T12:17:19.030Z,4.30
2018-04-16T12:19:46.685Z,7.65
2018-04-16T12:22:15.163Z,2.00
2018-04-16T12:24:42.600Z,4.22
2018-04-16T12:27:10.098Z,6.85
2018-04-16T12:29:37.585Z,4.72
2018-04-16T12:32:05.081Z,3.65
2018-04-16T12:34:32.557Z,3.45
2018-04-16T12:37:00.887Z,3.55
2018-04-16T12:39:28.551Z,5.95
2018-04-16T12:41:56.034Z,7.30
2018-04-16T12:44:23.534Z,5.70
2018-04-16T12:46:51.378Z,3.30
2018-04-16T12:49:19.644Z,2.28
2018-04-16T12:51:47.137Z,9.80
2018-04-16T12:54:15.355Z,2.70
2018-04-16T12:56:42.832Z,5.97
2018-04-16T12:59:10.325Z,3.25
2018-04-16T13:01:38.648Z,11.50
2018-04-16T13:04:06.145Z,11.65
2018-04-16T13:06:34.393Z,10.95
2018-04-16T13:09:01.886Z,7.00
2018-04-16T13:11:30.133Z,5.62
2018-04-16T13:13:57.626Z,2.15
2018-04-16T13:16:26.505Z,5.55
2018-04-16T13:18:54.765Z,2.67
2018-04-16T13:21:22.245Z,4.30
2018-04-16T13:23:50.500Z,2.72
2018-04-16T13:26:17.980Z,23.10
2018-04-16T13:28:45.484Z,8.98
2018-04-16T13:31:12.969Z,5.80
2018-04-16T13:33:40.486Z,10.32
2018-04-16T13:36:08.166Z,5.70
2018-04-16T13:38:35.653Z,5.47
2018-04-16T13:41:03.190Z,3.58
2018-04-16T13:43:30.683Z,5.75
2018-04-16T13:45:58.161Z,3.15
2018-04-16T13:48:26.417Z,8.27
2018-04-16T13:50:53.893Z,6.87
2018-04-16T13:53:22.160Z,3.97
2018-04-16T13:55:50.485Z,4.10
2018-04-16T13:58:17.965Z,3.40
2018-04-16T14:00:45.465Z,3.92
2018-04-16T14:03:12.986Z,2.47
2018-04-16T14:05:40.518Z,4.15
2018-04-16T14:08:08.025Z,5.90
2018-04-16T14:10:35.527Z,6.47
2018-04-16T14:13:03.013Z,3.62
2018-04-16T14:15:30.512Z,2.90
2018-04-16T14:17:57.998Z,5.65
2018-04-16T14:20:26.262Z,1.83
2018-04-16T14:22:54.514Z,4.15
2018-04-16T14:25:22.010Z,3.80
2018-04-16T14:27:50.256Z,2.17
2018-04-16T14:30:17.749Z,5.20
2018-04-16T14:32:46.010Z,4.18
2018-04-16T14:35:14.269Z,2.95
2018-04-16T14:37:41.746Z,6.47
2018-04-16T14:40:10.010Z,4.45
2018-04-16T14:42:37.495Z,2.25
2018-04-16T14:45:05.757Z,2.05
2018-04-16T14:47:34.010Z,4.95
2018-04-16T14:50:01.507Z,6.43
2018-04-16T14:52:29.758Z,8.75
2018-04-16T14:54:57.249Z,1.67
2018-04-16T14:57:25.508Z,4.35
2018-04-16T14:59:53.769Z,4.90
2018-04-16T15:02:21.268Z,2.92
2018-04-16T15:04:49.529Z,4.20
2018-04-16T15:07:17.787Z,3.90
2018-04-16T15:09:45.293Z,3.65
2018-04-16T15:12:12.782Z,2.08
2018-04-16T15:14:40.288Z,2.70
2018-04-16T15:17:08.530Z,5.50
2018-04-16T15:19:36.034Z,3.85
2018-04-16T15:22:04.298Z,6.18
2018-04-16T15:24:32.540Z,8.55
2018-04-16T15:27:00.038Z,6.85
2018-04-16T15:29:27.515Z,6.28
2018-04-16T15:31:55.018Z,5.90
2018-04-16T15:34:22.504Z,10.75
2018-04-16T15:36:50.778Z,7.07
2018-04-16T15:39:18.264Z,4.37
2018-04-16T15:41:45.756Z,6.35
2018-04-16T15:44:13.254Z,7.70
2018-04-16T15:46:40.746Z,4.03
2018-04-16T15:49:08.239Z,5.00
2018-04-16T15:51:35.746Z,3.22
2018-04-16T15:54:03.985Z,8.35
2018-04-16T15:56:31.473Z,3.40
2018-04-16T15:58:59.721Z,3.42
2018-04-16T16:01:28.198Z,11.12
2018-04-16T16:03:55.685Z,6.55
2018-04-16T16:06:28.152Z,3.97
2018-04-16T16:08:56.416Z,5.87
2018-04-16T16:11:23.911Z,5.65
2018-04-16T16:13:51.406Z,7.93
2018-04-16T16:16:18.901Z,6.95
2018-04-16T16:18:47.163Z,7.82
2018-04-16T16:21:14.645Z,5.82
2018-04-16T16:23:42.925Z,4.35
2018-04-16T16:26:11.322Z,4.32
2018-04-16T16:28:38.824Z,5.45
2018-04-16T16:31:06.323Z,8.85
2018-04-16T16:33:34.582Z,4.07
2018-04-16T16:36:02.068Z,12.75
2018-04-16T16:38:30.330Z,4.75
2018-04-16T16:40:58.579Z,6.10
2018-04-16T16:43:26.082Z,9.55
2018-04-16T16:45:53.577Z,3.40
2018-04-16T16:48:21.093Z,6.93
2018-04-16T16:50:49.339Z,3.58
2018-04-16T16:53:16.859Z,4.82
2018-04-16T16:55:44.386Z,3.42
2018-04-16T16:58:13.301Z,6.12
2018-04-16T17:00:40.770Z,3.72
2018-04-16T17:03:08.266Z,5.47
2018-04-16T17:05:35.733Z,2.92
2018-04-16T17:08:03.255Z,3.25
2018-04-16T17:10:30.714Z,2.42
2018-04-16T17:12:58.205Z,8.07
2018-04-16T17:15:25.694Z,2.50
2018-04-16T17:17:53.959Z,9.50
2018-04-16T17:20:21.435Z,3.60
2018-04-16T17:22:48.999Z,4.65
2018-04-16T17:25:17.277Z,4.75
2018-04-16T17:27:44.780Z,8.75
2018-04-16T17:30:12.274Z,3.83
2018-04-16T17:32:39.780Z,5.35
2018-04-16T17:35:07.257Z,2.45
2018-04-16T17:37:34.737Z,6.97
2018-04-16T17:40:03.898Z,3.75
2018-04-16T17:42:31.395Z,3.55
2018-04-16T17:44:58.913Z,3.67
2018-04-16T17:47:26.394Z,5.18
2018-04-16T17:49:53.889Z,3.33
2018-04-16T17:52:22.142Z,6.65
2018-04-16T17:54:49.636Z,5.95
2018-04-16T17:57:17.884Z,9.35
2018-04-16T17:59:45.377Z,5.15
2018-04-16T18:02:13.618Z,4.18
2018-04-16T18:04:41.128Z,6.75
2018-04-16T18:07:08.614Z,8.38
2018-04-16T18:09:36.113Z,3.55
2018-04-16T18:12:04.358Z,5.12
2018-04-16T18:14:31.858Z,6.10
2018-04-16T18:17:00.108Z,5.43
2018-04-16T18:19:27.602Z,5.05
2018-04-16T18:21:55.848Z,4.05
2018-04-16T18:24:23.365Z,4.57
2018-04-16T18:26:50.841Z,9.48
2018-04-16T18:29:18.337Z,7.78
2018-04-16T18:31:45.810Z,4.93
2018-04-16T18:34:14.078Z,7.07
2018-04-16T18:36:42.961Z,6.45
2018-04-16T18:39:12.366Z,4.20
2018-04-16T18:41:40.621Z,7.30
2018-04-16T18:44:08.123Z,4.60
2018-04-16T18:46:36.386Z,4.05
2018-04-16T18:49:03.867Z,1.92
2018-04-16T18:51:32.120Z,4.62
2018-04-16T18:54:00.365Z,4.93
2018-04-16T18:56:27.867Z,3.15
2018-04-16T18:58:56.175Z,6.43
2018-04-16T19:01:23.671Z,7.35
2018-04-16T19:03:51.156Z,5.00
2018-04-16T19:06:19.426Z,4.75
2018-04-16T19:08:46.907Z,3.90
2018-04-16T19:11:15.186Z,3.95
2018-04-16T19:13:43.424Z,4.22
2018-04-16T19:16:10.906Z,4.07
2018-04-16T19:18:39.188Z,4.25
2018-04-16T19:21:13.105Z,3.85
2018-04-16T19:23:41.367Z,3.33
2018-04-16T19:26:09.623Z,6.85
2018-04-16T19:28:37.126Z,5.32
2018-04-16T19:31:05.367Z,5.53
2018-04-16T19:33:38.545Z,3.47
2018-04-16T19:36:06.024Z,4.45
2018-04-16T19:38:33.520Z,2.25
2018-04-16T19:41:01.002Z,2.62
2018-04-16T19:43:29.274Z,3.12
2018-04-16T19:45:56.760Z,4.85
2018-04-16T19:48:24.270Z,5.37
2018-04-16T19:50:51.774Z,4.03
2018-04-16T19:53:19.274Z,3.35
2018-04-16T19:55:53.095Z,7.57
2018-04-16T19:58:22.363Z,5.15
2018-04-16T20:00:49.854Z,3.90
2018-04-16T20:03:23.036Z,7.07
2018-04-16T20:05:51.281Z,5.95
2018-04-16T20:08:18.782Z,7.65
2018-04-16T20:10:47.028Z,3.53
2018-04-16T20:13:14.533Z,4.65
2018-04-16T20:15:42.006Z,7.65
2018-04-16T20:18:09.501Z,7.47
2018-04-16T20:20:36.981Z,8.15
2018-04-16T20:23:05.250Z,9.60
2018-04-16T20:25:33.505Z,7.03
2018-04-16T20:28:01.009Z,6.18
2018-04-16T20:30:29.249Z,3.08
2018-04-16T20:32:56.750Z,5.25
2018-04-16T20:35:24.993Z,8.30
2018-04-16T20:37:52.498Z,7.70
2018-04-16T20:40:19.977Z,9.88
2018-04-16T20:42:47.482Z,5.20
2018-04-16T20:45:14.958Z,7.60
2018-04-16T20:47:43.221Z,5.78
2018-04-16T20:50:11.482Z,5.37
2018-04-16T20:52:38.954Z,7.28
2018-04-16T20:55:06.452Z,6.50
2018-04-16T20:57:33.942Z,10.98
2018-04-16T21:00:01.441Z,8.77
2018-04-16T21:02:29.704Z,14.25
2018-04-16T21:04:57.230Z,3.50
2018-04-16T21:07:24.710Z,6.03
2018-04-16T21:09:52.215Z,7.45
2018-04-16T21:12:19.694Z,6.95
2018-04-16T21:14:47.195Z,5.78
2018-04-16T21:17:14.726Z,6.97
2018-04-16T21:19:42.226Z,9.77
2018-04-16T21:22:10.477Z,6.30
2018-04-16T21:24:37.983Z,8.95
2018-04-16T21:27:06.230Z,18.67
2018-04-16T21:29:33.725Z,6.55
2018-04-16T21:32:01.204Z,9.05
2018-04-16T21:34:28.721Z,6.60
2018-04-16T21:36:57.775Z,5.90
2018-04-16T21:39:25.281Z,10.35
2018-04-16T21:41:53.521Z,3.62
2018-04-16T21:44:21.021Z,5.10
2018-04-16T21:46:49.274Z,12.20
2018-04-16T21:49:16.769Z,7.93
2018-04-16T21:51:44.245Z,7.90
2018-04-16T21:54:11.758Z,6.57
2018-04-16T21:56:39.245Z,6.40
2018-04-16T21:59:06.750Z,6.60
2018-04-16T22:01:34.230Z,5.82
2018-04-16T22:04:01.733Z,7.90
2018-04-16T22:06:29.209Z,4.80
2018-04-16T22:08:56.721Z,3.62
2018-04-16T22:11:24.974Z,7.72
2018-04-16T22:13:52.477Z,4.85
2018-04-16T22:16:19.953Z,6.85
2018-04-16T22:18:47.452Z,2.87
2018-04-16T22:21:14.939Z,3.70
2018-04-16T22:23:43.189Z,4.10
2018-04-16T22:26:10.696Z,6.15
2018-04-16T22:28:38.177Z,4.18
2018-04-16T22:31:05.674Z,5.65
2018-04-16T22:33:33.156Z,6.43
2018-04-16T22:36:00.666Z,6.50
2018-04-16T22:38:28.147Z,4.75
2018-04-16T22:40:56.417Z,8.75
2018-04-16T22:43:23.902Z,4.90
2018-04-16T22:45:52.165Z,9.95
2018-04-16T22:48:19.646Z,7.72
2018-04-16T22:50:47.909Z,4.78
2018-04-16T22:53:15.381Z,8.35
2018-04-16T22:55:43.658Z,4.72
2018-04-16T22:58:11.902Z,5.05
2018-04-16T23:00:39.404Z,6.47
2018-04-16T23:03:06.881Z,9.57
2018-04-16T23:05:34.377Z,2.40
2018-04-16T23:08:01.873Z,9.98
2018-04-16T23:10:30.132Z,5.30
2018-04-16T23:12:57.609Z,5.50
2018-04-16T23:15:25.865Z,7.93
2018-04-16T23:17:53.346Z,3.90
2018-04-16T23:20:21.613Z,4.97
2018-04-16T23:22:49.857Z,7.35
2018-04-16T23:25:17.362Z,10.30
2018-04-16T23:27:45.605Z,7.65
2018-04-16T23:30:13.107Z,4.75
2018-04-16T23:32:40.584Z,6.55
2018-04-16T23:35:08.089Z,3.40
2018-04-16T23:37:35.570Z,6.00
2018-04-16T23:40:03.833Z,6.25
2018-04-16T23:57:05.647Z,10.13
2018-04-16T23:59:33.126Z,9.27
